createdAt,value
2022-08-31T00:01:29.145Z,102318.16
2022-08-31T00:04:03.269Z,102321.09
2022-08-31T00:06:34.780Z,102302.09
2022-08-31T00:09:06.956Z,102325.53
2022-08-31T00:11:38.177Z,102322.97
2022-08-31T00:14:13.178Z,102326.34
2022-08-31T00:16:44.894Z,102328.44
2022-08-31T00:19:42.048Z,102332.25
2022-08-31T00:22:12.292Z,102329.75
2022-08-31T00:24:42.543Z,102335.38
2022-08-31T00:27:10.398Z,102323.44
2022-08-31T00:29:41.932Z,102324.03
2022-08-31T00:32:11.966Z,102330.13
2022-08-31T00:34:40.508Z,102323.56
2022-08-31T00:37:13.957Z,102330.44
2022-08-31T00:39:44.096Z,102330.53
2022-08-31T00:42:12.459Z,102328.31
2022-08-31T00:44:44.102Z,102320.41
2022-08-31T00:47:14.438Z,102321.16
2022-08-31T00:49:44.325Z,102323.88
2022-08-31T00:52:18.648Z,102327.34
2022-08-31T00:54:52.511Z,102305.91
2022-08-31T00:57:30.116Z,102325.19
2022-08-31T01:00:08.667Z,102323.28
2022-08-31T01:02:39.006Z,102302.38
2022-08-31T01:05:09.728Z,102326.47
2022-08-31T01:07:38.523Z,102328.28
2022-08-31T01:10:12.393Z,102328.09
2022-08-31T01:12:41.312Z,102336.13
2022-08-31T01:15:17.667Z,102330.81
2022-08-31T01:17:47.759Z,102341.19
2022-08-31T01:20:27.977Z,102331.66
2022-08-31T01:23:09.159Z,102325.56
2022-08-31T01:25:42.054Z,102328.50
2022-08-31T01:28:11.394Z,102343.16
2022-08-31T01:30:45.974Z,102344.16
2022-08-31T01:33:13.907Z,102333.78
2022-08-31T01:35:49.359Z,102346.13
2022-08-31T01:38:18.545Z,102335.97
2022-08-31T01:40:55.076Z,102333.88
2022-08-31T01:43:23.068Z,102328.00
2022-08-31T01:45:53.545Z,102338.16
2022-08-31T01:48:23.993Z,102334.69
2022-08-31T01:50:51.986Z,102331.56
2022-08-31T01:53:23.060Z,102334.16
2022-08-31T01:55:53.560Z,102334.94
2022-08-31T01:58:21.179Z,102342.16
2022-08-31T02:00:49.006Z,102344.03
2022-08-31T02:03:19.419Z,102332.72
2022-08-31T02:05:47.273Z,102331.97
2022-08-31T02:08:15.110Z,102306.13
2022-08-31T02:10:48.300Z,102333.84
2022-08-31T02:13:16.142Z,102330.56
2022-08-31T02:15:44.032Z,102334.66
2022-08-31T02:18:15.946Z,102335.41
2022-08-31T02:20:45.857Z,102332.28
2022-08-31T02:23:13.715Z,102340.13
2022-08-31T02:25:47.106Z,102337.47
2022-08-31T02:28:15.213Z,102323.75
2022-08-31T02:30:43.798Z,102335.09
2022-08-31T02:33:16.158Z,102342.13
2022-08-31T02:35:44.047Z,102318.19
2022-08-31T02:38:12.796Z,102343.56
2022-08-31T02:40:47.787Z,102345.19
2022-08-31T02:43:24.517Z,102342.78
2022-08-31T02:45:54.790Z,102339.78
2022-08-31T02:48:24.938Z,102348.31
2022-08-31T02:50:54.896Z,102335.78
2022-08-31T02:53:24.324Z,102348.47
2022-08-31T02:55:55.283Z,102354.50
2022-08-31T02:58:25.381Z,102340.00
2022-08-31T03:00:53.622Z,102346.03
2022-08-31T03:03:21.972Z,102348.91
2022-08-31T03:05:54.346Z,102357.72
2022-08-31T03:08:22.160Z,102357.84
2022-08-31T03:10:49.979Z,102358.97
2022-08-31T03:13:21.225Z,102360.56
2022-08-31T03:15:49.119Z,102356.38
2022-08-31T03:18:16.935Z,102358.38
2022-08-31T03:20:48.981Z,102359.94
2022-08-31T03:23:16.903Z,102360.00
2022-08-31T03:25:44.845Z,102361.06
2022-08-31T03:28:16.869Z,102363.88
2022-08-31T03:30:48.036Z,102362.63
2022-08-31T03:33:16.190Z,102357.63
2022-08-31T03:35:47.022Z,102371.09
2022-08-31T03:38:17.343Z,102364.16
2022-08-31T03:40:45.768Z,102342.56
2022-08-31T03:43:15.991Z,102366.63
2022-08-31T03:45:49.641Z,102368.34
2022-08-31T03:48:20.073Z,102355.50
2022-08-31T03:50:48.459Z,102357.38
2022-08-31T03:53:22.664Z,102372.88
2022-08-31T03:55:52.827Z,102374.63
2022-08-31T03:58:22.910Z,102369.16
2022-08-31T04:00:56.397Z,102376.06
2022-08-31T04:03:26.634Z,102361.34
2022-08-31T04:05:54.457Z,102356.00
2022-08-31T04:08:24.844Z,102370.81
2022-08-31T04:10:54.206Z,102372.59
2022-08-31T04:13:28.044Z,102361.59
2022-08-31T04:16:03.802Z,102380.56
2022-08-31T04:18:31.618Z,102377.97
2022-08-31T04:20:59.423Z,102377.13
2022-08-31T04:23:32.121Z,102381.53
2022-08-31T04:26:00.204Z,102380.78
2022-08-31T04:28:28.096Z,102385.03
2022-08-31T04:31:02.180Z,102377.91
2022-08-31T04:33:31.411Z,102385.41
2022-08-31T04:35:59.570Z,102377.81
2022-08-31T04:38:31.509Z,102389.72
2022-08-31T04:40:59.291Z,102392.78
2022-08-31T04:43:27.893Z,102392.94
2022-08-31T04:45:59.847Z,102390.09
2022-08-31T04:48:27.797Z,102371.22
2022-08-31T04:51:07.092Z,102396.63
2022-08-31T04:53:36.282Z,102377.41
2022-08-31T04:56:16.479Z,102375.63
2022-08-31T04:58:46.249Z,102390.22
2022-08-31T05:01:20.864Z,102382.94
2022-08-31T05:03:51.153Z,102360.94
2022-08-31T05:06:25.980Z,102389.91
2022-08-31T05:08:55.912Z,102395.94
2022-08-31T05:11:30.089Z,102395.25
2022-08-31T05:13:59.518Z,102377.16
2022-08-31T05:16:30.744Z,102387.94
2022-08-31T05:19:01.182Z,102391.06
2022-08-31T05:21:34.563Z,102387.91
2022-08-31T05:24:06.936Z,102373.31
2022-08-31T05:26:42.155Z,102391.28
2022-08-31T05:29:11.344Z,102378.72
2022-08-31T05:31:42.503Z,102375.38
2022-08-31T05:34:14.657Z,102397.59
2022-08-31T05:36:52.301Z,102391.13
2022-08-31T05:39:22.438Z,102392.63
2022-08-31T05:41:52.563Z,102400.31
2022-08-31T05:44:21.317Z,102392.91
2022-08-31T05:47:00.908Z,102379.00
2022-08-31T05:49:35.204Z,102396.38
2022-08-31T05:52:07.312Z,102399.84
2022-08-31T05:54:37.889Z,102387.53
2022-08-31T05:57:06.049Z,102392.41
2022-08-31T05:59:35.954Z,102395.28
2022-08-31T06:02:27.515Z,102398.19
2022-08-31T06:04:58.280Z,102402.63
2022-08-31T06:07:27.630Z,102397.56
2022-08-31T06:09:55.520Z,102385.38
2022-08-31T06:12:27.835Z,102395.97
2022-08-31T06:14:57.850Z,102401.28
2022-08-31T06:17:29.283Z,102400.22
2022-08-31T06:19:58.101Z,102401.00
2022-08-31T06:22:27.679Z,102398.28
2022-08-31T06:24:59.649Z,102376.88
2022-08-31T06:27:27.683Z,102393.38
2022-08-31T06:29:55.502Z,102402.25
2022-08-31T06:32:26.319Z,102393.59
2022-08-31T06:34:54.470Z,102391.56
2022-08-31T06:37:22.273Z,102392.47
2022-08-31T06:39:56.404Z,102385.25
2022-08-31T06:42:24.161Z,102384.66
2022-08-31T06:44:52.661Z,102378.06
2022-08-31T06:47:25.097Z,102386.78
2022-08-31T06:49:53.688Z,102388.94
2022-08-31T06:52:21.679Z,102370.03
2022-08-31T06:54:51.261Z,102376.13
2022-08-31T06:57:19.736Z,102383.75
2022-08-31T06:59:47.521Z,102383.22
2022-08-31T07:02:15.916Z,102382.19
2022-08-31T07:04:43.878Z,102366.16
2022-08-31T07:07:12.259Z,102377.22
2022-08-31T07:09:42.735Z,102380.28
2022-08-31T07:12:11.819Z,102375.22
2022-08-31T07:14:39.811Z,102361.41
2022-08-31T07:17:10.372Z,102379.28
2022-08-31T07:19:38.275Z,102374.81
2022-08-31T07:22:15.544Z,102373.53
2022-08-31T07:24:43.610Z,102374.66
2022-08-31T07:27:20.448Z,102381.00
2022-08-31T07:29:48.323Z,102375.59
2022-08-31T07:32:17.534Z,102361.00
2022-08-31T07:34:45.758Z,102371.94
2022-08-31T07:37:34.160Z,102361.38
2022-08-31T07:40:23.677Z,102362.84
2022-08-31T07:42:54.128Z,102368.59
2022-08-31T07:45:28.495Z,102369.06
2022-08-31T07:48:02.492Z,102361.00
2022-08-31T07:50:31.760Z,102373.25
2022-08-31T07:53:00.430Z,102361.69
2022-08-31T07:55:29.463Z,102368.28
2022-08-31T07:58:00.496Z,102362.88
2022-08-31T08:00:33.248Z,102363.41
2022-08-31T08:03:10.945Z,102359.69
2022-08-31T08:05:41.827Z,102361.16
2022-08-31T08:08:13.977Z,102347.97
2022-08-31T08:10:52.416Z,102345.56
2022-08-31T08:13:23.316Z,102348.72
2022-08-31T08:15:52.481Z,102356.41
2022-08-31T08:18:20.996Z,102336.72
2022-08-31T08:20:54.918Z,102352.53
2022-08-31T08:23:28.847Z,102339.91
2022-08-31T08:26:01.548Z,102339.81
2022-08-31T08:28:41.092Z,102350.88
2022-08-31T08:31:15.998Z,102347.38
2022-08-31T08:33:44.963Z,102343.13
2022-08-31T08:36:17.266Z,102334.25
2022-08-31T08:38:47.421Z,102347.47
2022-08-31T08:41:21.294Z,102344.91
2022-08-31T08:43:53.177Z,102338.88
2022-08-31T08:46:35.164Z,102332.63
2022-08-31T08:49:23.518Z,102326.44
2022-08-31T08:52:01.141Z,102332.47
2022-08-31T08:54:32.792Z,102335.38
2022-08-31T08:57:09.320Z,102331.69
2022-08-31T08:59:38.557Z,102323.69
2022-08-31T09:02:15.083Z,102328.53
2022-08-31T09:05:02.168Z,102332.53
2022-08-31T09:08:00.945Z,102332.03
2022-08-31T09:10:34.572Z,102321.38
2022-08-31T09:13:15.979Z,102317.34
2022-08-31T09:16:04.094Z,102327.63
2022-08-31T09:18:45.195Z,102321.22
2022-08-31T09:21:22.678Z,102317.38
2022-08-31T09:24:01.615Z,102303.75
2022-08-31T09:26:37.531Z,102319.78
2022-08-31T09:29:05.672Z,102316.19
2022-08-31T09:31:38.512Z,102313.47
2022-08-31T09:34:16.188Z,102304.34
2022-08-31T09:36:46.940Z,102309.28
2022-08-31T09:39:22.276Z,102319.00
2022-08-31T09:41:58.026Z,102308.06
2022-08-31T09:44:32.840Z,102306.84
2022-08-31T09:47:07.188Z,102305.28
2022-08-31T09:49:39.799Z,102304.91
2022-08-31T09:52:43.134Z,102308.94
2022-08-31T09:55:15.703Z,102296.19
2022-08-31T09:57:50.425Z,102291.94
2022-08-31T10:00:31.812Z,102296.50
2022-08-31T10:03:09.711Z,102285.06
2022-08-31T10:05:43.764Z,102291.13
2022-08-31T10:08:28.124Z,102285.31
2022-08-31T10:10:58.646Z,102294.72
2022-08-31T10:13:39.544Z,102290.63
2022-08-31T10:16:16.431Z,102263.66
2022-08-31T10:18:57.617Z,102290.25
2022-08-31T10:21:35.416Z,102277.78
2022-08-31T10:24:20.546Z,102278.22
2022-08-31T10:26:54.266Z,102286.44
2022-08-31T10:29:36.416Z,102288.56
2022-08-31T10:32:14.070Z,102289.75
2022-08-31T10:35:01.051Z,102284.06
2022-08-31T10:37:49.350Z,102294.16
2022-08-31T10:40:20.982Z,102268.59
2022-08-31T10:42:57.811Z,102272.00
2022-08-31T10:45:29.994Z,102279.00
2022-08-31T10:47:58.863Z,102263.19
2022-08-31T10:50:39.273Z,102252.81
2022-08-31T10:53:13.776Z,102279.72
2022-08-31T10:55:56.198Z,102264.53
2022-08-31T10:58:33.146Z,102267.59
2022-08-31T11:01:08.784Z,102257.47
2022-08-31T11:03:53.600Z,102253.97
2022-08-31T11:06:34.837Z,102253.25
2022-08-31T11:09:12.972Z,102262.66
2022-08-31T11:11:48.946Z,102264.88
2022-08-31T11:15:00.519Z,102247.72
2022-08-31T11:17:50.933Z,102263.66
2022-08-31T11:20:26.298Z,102264.34
2022-08-31T11:23:16.500Z,102259.25
2022-08-31T11:26:31.962Z,102261.47
2022-08-31T11:29:13.319Z,102257.31
2022-08-31T11:31:42.769Z,102264.53
2022-08-31T11:34:17.262Z,102250.25
2022-08-31T11:36:52.048Z,102248.81
2022-08-31T11:39:45.485Z,102253.66
2022-08-31T11:42:34.340Z,102249.31
2022-08-31T11:45:14.041Z,102246.13
2022-08-31T11:47:44.394Z,102237.56
2022-08-31T11:50:29.206Z,102248.75
2022-08-31T11:53:00.245Z,102231.88
2022-08-31T11:55:31.617Z,102242.41
2022-08-31T11:58:29.091Z,102233.41
2022-08-31T12:01:06.894Z,102227.53
2022-08-31T12:03:41.362Z,102228.38
2022-08-31T12:06:33.774Z,102221.25
2022-08-31T12:09:21.036Z,102212.69
2022-08-31T12:11:56.671Z,102210.72
2022-08-31T12:14:36.550Z,102222.44
2022-08-31T12:17:14.107Z,102217.97
2022-08-31T12:20:02.855Z,102210.69
2022-08-31T12:23:15.381Z,102201.63
2022-08-31T12:26:11.167Z,102219.50
2022-08-31T12:28:57.783Z,102221.69
2022-08-31T12:31:30.565Z,102215.19
2022-08-31T12:34:04.358Z,102212.69
2022-08-31T12:36:37.609Z,102215.63
2022-08-31T12:39:09.013Z,102216.69
2022-08-31T12:41:42.864Z,102190.97
2022-08-31T12:44:14.186Z,102214.63
2022-08-31T12:47:04.241Z,102215.81
2022-08-31T12:49:49.954Z,102208.19
2022-08-31T12:52:34.509Z,102212.59
2022-08-31T12:55:13.640Z,102181.53
2022-08-31T12:57:55.350Z,102189.50
2022-08-31T13:00:27.947Z,102190.59
2022-08-31T13:02:59.048Z,102212.91
2022-08-31T13:05:31.402Z,102236.91
2022-08-31T13:08:02.366Z,102246.66
2022-08-31T13:10:35.944Z,102254.44
2022-08-31T13:13:08.823Z,102245.56
2022-08-31T13:15:41.021Z,102247.94
2022-08-31T13:18:11.891Z,102252.00
2022-08-31T13:20:44.100Z,102251.72
2022-08-31T13:23:16.960Z,102251.00
2022-08-31T13:25:49.685Z,102243.56
2022-08-31T13:28:26.183Z,102255.34
2022-08-31T13:31:03.551Z,102251.16
2022-08-31T13:33:36.689Z,102245.19
2022-08-31T13:36:13.074Z,102256.75
2022-08-31T13:38:52.212Z,102250.91
2022-08-31T13:41:27.317Z,102252.09
2022-08-31T13:44:02.702Z,102248.88
2022-08-31T13:46:43.312Z,102252.72
2022-08-31T13:49:37.183Z,102246.25
2022-08-31T13:52:14.834Z,102248.59
2022-08-31T13:54:45.010Z,102249.19
2022-08-31T13:57:20.613Z,102245.94
2022-08-31T13:59:51.887Z,102247.31
2022-08-31T14:02:39.526Z,102259.38
2022-08-31T14:05:14.798Z,102261.91
2022-08-31T14:08:02.129Z,102251.84
2022-08-31T14:10:37.051Z,102267.88
2022-08-31T14:13:14.395Z,102242.72
2022-08-31T14:15:52.560Z,102254.31
2022-08-31T14:18:27.603Z,102262.78
2022-08-31T14:21:22.004Z,102254.78
2022-08-31T14:23:52.705Z,102246.31
2022-08-31T14:26:22.937Z,102243.69
2022-08-31T14:28:53.272Z,102239.38
2022-08-31T14:31:26.253Z,102238.38
2022-08-31T14:34:08.226Z,102237.63
2022-08-31T14:36:45.719Z,102226.88
2022-08-31T14:39:15.772Z,102240.13
2022-08-31T14:41:45.208Z,102245.91
2022-08-31T14:44:16.601Z,102240.03
2022-08-31T14:46:46.840Z,102233.06
2022-08-31T14:49:16.199Z,102222.44
2022-08-31T14:51:47.035Z,102232.69
2022-08-31T14:54:17.112Z,102232.81
2022-08-31T14:56:50.818Z,102230.81
2022-08-31T14:59:22.055Z,102232.91
2022-08-31T15:01:50.750Z,102240.19
2022-08-31T15:04:25.686Z,102244.81
2022-08-31T15:07:09.470Z,102239.44
2022-08-31T15:09:44.196Z,102234.53
2022-08-31T15:12:14.805Z,102241.13
2022-08-31T15:14:44.804Z,102238.44
2022-08-31T15:17:19.288Z,102224.72
2022-08-31T15:19:55.189Z,102245.06
2022-08-31T15:22:26.465Z,102223.88
2022-08-31T15:24:55.153Z,102231.41
2022-08-31T15:27:28.904Z,102221.03
2022-08-31T15:30:07.669Z,102230.97
2022-08-31T15:32:39.070Z,102219.16
2022-08-31T15:35:14.216Z,102228.84
2022-08-31T15:37:46.696Z,102231.88
2022-08-31T15:40:15.291Z,102237.72
2022-08-31T15:42:45.223Z,102235.47
2022-08-31T15:45:14.889Z,102239.31
2022-08-31T15:48:00.191Z,102244.44
2022-08-31T15:50:31.494Z,102239.88
2022-08-31T15:53:09.431Z,102236.31
2022-08-31T15:55:40.993Z,102232.06
2022-08-31T15:58:10.228Z,102236.16
2022-08-31T16:00:41.698Z,102241.97
2022-08-31T16:03:09.634Z,102240.09
2022-08-31T16:05:45.279Z,102246.22
2022-08-31T16:08:14.290Z,102241.97
2022-08-31T16:10:49.129Z,102251.44
2022-08-31T16:13:17.721Z,102257.00
2022-08-31T16:15:52.826Z,102241.88
2022-08-31T16:18:22.592Z,102240.97
2022-08-31T16:20:55.604Z,102253.06
2022-08-31T16:23:24.808Z,102260.31
2022-08-31T16:25:52.869Z,102254.34
2022-08-31T16:28:22.989Z,102256.47
2022-08-31T16:30:51.801Z,102255.34
2022-08-31T16:33:22.036Z,102254.91
2022-08-31T16:35:51.519Z,102248.59
2022-08-31T16:38:20.255Z,102238.94
2022-08-31T16:40:50.739Z,102246.41
2022-08-31T16:43:20.954Z,102241.91
2022-08-31T16:45:48.783Z,102239.88
2022-08-31T16:48:33.894Z,102241.34
2022-08-31T16:51:04.002Z,102248.03
2022-08-31T16:53:32.447Z,102242.06
2022-08-31T16:56:02.492Z,102244.25
2022-08-31T17:01:24.029Z,102236.75
2022-08-31T17:03:55.881Z,102236.50
2022-08-31T17:06:26.639Z,102234.78
2022-08-31T17:08:55.394Z,102243.44
2022-08-31T17:11:26.302Z,102238.97
2022-08-31T17:13:58.449Z,102235.31
2022-08-31T17:16:28.670Z,102234.72
2022-08-31T17:19:00.871Z,102234.81
2022-08-31T17:21:33.356Z,102246.09
2022-08-31T17:24:03.330Z,102237.78
2022-08-31T17:26:33.892Z,102240.06
2022-08-31T17:29:02.804Z,102241.66
2022-08-31T17:31:36.931Z,102243.38
2022-08-31T17:34:07.054Z,102238.34
2022-08-31T17:36:37.793Z,102232.13
2022-08-31T17:39:06.474Z,102237.03
2022-08-31T17:41:36.918Z,102238.47
2022-08-31T17:44:05.512Z,102244.28
2022-08-31T17:46:33.987Z,102247.75
2022-08-31T17:49:05.864Z,102240.66
2022-08-31T17:51:36.525Z,102231.00
2022-08-31T17:54:10.842Z,102246.22
2022-08-31T17:56:48.099Z,102258.84
2022-08-31T17:59:18.686Z,102262.78
2022-08-31T18:01:51.618Z,102256.41
2022-08-31T18:04:23.146Z,102260.53
2022-08-31T18:06:57.757Z,102246.53
2022-08-31T18:09:27.956Z,102266.72
2022-08-31T18:12:01.773Z,102266.16
2022-08-31T18:14:32.334Z,102273.25
2022-08-31T18:17:01.527Z,102281.78
2022-08-31T18:19:31.920Z,102267.84
2022-08-31T18:22:03.897Z,102269.88
2022-08-31T18:24:37.269Z,102278.06
2022-08-31T18:27:09.234Z,102266.47
2022-08-31T18:29:40.730Z,102269.91
2022-08-31T18:32:19.943Z,102256.28
2022-08-31T18:34:52.116Z,102261.69
2022-08-31T18:37:25.981Z,102274.81
2022-08-31T18:40:13.747Z,102271.28
2022-08-31T18:43:01.326Z,102267.81
2022-08-31T18:45:30.906Z,102265.03
2022-08-31T18:48:32.032Z,102268.81
2022-08-31T18:50:52.826Z,102267.13
2022-08-31T18:53:29.574Z,102267.25
2022-08-31T18:55:59.524Z,102265.91
2022-08-31T18:58:28.818Z,102262.97
2022-08-31T19:00:58.210Z,102256.72
2022-08-31T19:03:29.279Z,102256.72
2022-08-31T19:05:58.477Z,102268.13
2022-08-31T19:08:28.656Z,102262.72
2022-08-31T19:10:58.581Z,102267.66
2022-08-31T19:13:31.339Z,102270.69
2022-08-31T19:16:15.919Z,102269.75
2022-08-31T19:18:46.417Z,102249.00
2022-08-31T19:21:17.363Z,102270.31
2022-08-31T19:23:47.261Z,102271.91
2022-08-31T19:26:24.591Z,102265.13
2022-08-31T19:28:54.164Z,102264.19
2022-08-31T19:31:24.612Z,102264.38
2022-08-31T19:33:57.201Z,102256.69
2022-08-31T19:36:28.635Z,102266.91
2022-08-31T19:39:01.246Z,102257.75
2022-08-31T19:41:30.286Z,102262.56
2022-08-31T19:44:08.556Z,102241.00
2022-08-31T19:46:41.817Z,102254.16
2022-08-31T19:49:11.113Z,102235.75
2022-08-31T19:51:45.755Z,102259.00
2022-08-31T19:54:16.317Z,102231.50
2022-08-31T19:56:47.795Z,102259.94
2022-08-31T19:59:20.135Z,102263.69
2022-08-31T20:01:54.459Z,102263.84
2022-08-31T20:04:24.538Z,102267.28
2022-08-31T20:06:58.499Z,102259.78
2022-08-31T20:09:28.010Z,102266.09
2022-08-31T20:11:59.966Z,102259.88
2022-08-31T20:14:28.042Z,102256.16
2022-08-31T20:16:55.840Z,102263.28
2022-08-31T20:19:34.709Z,102261.47
2022-08-31T20:22:07.819Z,102251.25
2022-08-31T20:24:43.885Z,102258.16
2022-08-31T20:27:16.474Z,102254.66
2022-08-31T20:29:49.218Z,102263.81
2022-08-31T20:32:16.855Z,102257.38
2022-08-31T20:34:44.820Z,102233.13
2022-08-31T20:37:16.977Z,102238.72
2022-08-31T20:39:46.180Z,102253.88
2022-08-31T20:42:13.986Z,102241.09
2022-08-31T20:44:48.863Z,102251.31
2022-08-31T20:47:42.681Z,102240.78
2022-08-31T20:50:16.074Z,102245.88
2022-08-31T20:52:43.875Z,102246.69
2022-08-31T20:55:14.276Z,102243.41
2022-08-31T20:57:42.113Z,102248.22
2022-08-31T21:00:11.897Z,102238.47
2022-08-31T21:02:42.043Z,102226.59
2022-08-31T21:08:02.574Z,102242.41
2022-08-31T21:10:38.324Z,102241.59
2022-08-31T21:13:08.244Z,102238.63
2022-08-31T21:15:36.217Z,102238.34
2022-08-31T21:18:05.930Z,102241.47
2022-08-31T21:20:37.560Z,102246.19
2022-08-31T21:23:12.771Z,102245.09
2022-08-31T21:25:45.781Z,102247.25
2022-08-31T21:28:18.934Z,102246.03
2022-08-31T21:30:50.471Z,102249.09
2022-08-31T21:33:18.840Z,102244.72
2022-08-31T21:35:50.202Z,102237.56
2022-08-31T21:38:20.940Z,102238.28
2022-08-31T21:40:51.424Z,102232.63
2022-08-31T21:43:19.439Z,102233.19
2022-08-31T21:45:54.965Z,102227.41
2022-08-31T21:48:25.795Z,102241.91
2022-08-31T21:50:56.743Z,102232.72
2022-08-31T21:53:27.269Z,102237.25
2022-08-31T21:55:56.368Z,102239.19
2022-08-31T21:58:27.059Z,102233.72
2022-08-31T22:00:57.401Z,102229.53
2022-08-31T22:03:25.203Z,102226.22
2022-08-31T22:05:55.314Z,102236.34
2022-08-31T22:08:27.918Z,102230.06
2022-08-31T22:10:59.987Z,102241.34
2022-08-31T22:13:28.347Z,102237.00
2022-08-31T22:16:02.184Z,102235.31
2022-08-31T22:21:24.307Z,102234.50
2022-08-31T22:23:54.572Z,102232.22
2022-08-31T22:26:30.269Z,102227.94
2022-08-31T22:28:59.298Z,102212.84
2022-08-31T22:31:29.482Z,102227.59
2022-08-31T22:33:59.520Z,102213.88
2022-08-31T22:36:32.354Z,102227.50
2022-08-31T22:39:04.559Z,102214.88
2022-08-31T22:41:37.295Z,102228.66
2022-08-31T22:44:11.121Z,102207.03
2022-08-31T22:46:40.490Z,102226.78
2022-08-31T22:49:08.794Z,102225.63
2022-08-31T22:51:40.118Z,102215.59
2022-08-31T22:54:11.217Z,102208.63
2022-08-31T22:56:42.995Z,102226.75
2022-08-31T22:59:14.742Z,102226.81
2022-08-31T23:01:46.643Z,102227.25
2022-08-31T23:04:19.846Z,102232.31
2022-08-31T23:06:51.345Z,102222.19
2022-08-31T23:09:27.189Z,102209.56
2022-08-31T23:11:58.380Z,102230.88
2022-08-31T23:14:28.732Z,102222.97
2022-08-31T23:17:02.870Z,102229.91
2022-08-31T23:19:36.799Z,102213.69
2022-08-31T23:22:12.751Z,102232.97
2022-08-31T23:24:47.004Z,102235.41
2022-08-31T23:27:23.503Z,102232.81
2022-08-31T23:29:53.623Z,102235.47
2022-08-31T23:32:29.629Z,102237.47
2022-08-31T23:34:58.431Z,102222.69
2022-08-31T23:37:30.597Z,102235.78
2022-08-31T23:40:01.978Z,102219.56
2022-08-31T23:42:34.070Z,102235.63
2022-08-31T23:45:02.997Z,102233.22
2022-08-31T23:47:35.103Z,102220.28
2022-08-31T23:50:04.858Z,102231.44
2022-08-31T23:52:43.268Z,102235.16
2022-08-31T23:55:13.555Z,102234.31
2022-08-31T23:57:46.339Z,102225.66
